createdAt,value
2022-12-31T00:01:18.328Z,68.98
2022-12-31T00:03:44.582Z,68.42
2022-12-31T00:06:10.829Z,68.78
2022-12-31T00:08:37.085Z,68.47
2022-12-31T00:11:03.349Z,68.80
2022-12-31T00:13:29.623Z,68.56
2022-12-31T00:15:55.892Z,68.54
2022-12-31T00:18:22.133Z,68.27
2022-12-31T00:20:48.402Z,68.25
2022-12-31T00:23:14.659Z,68.15
2022-12-31T00:25:41.009Z,69.25
2022-12-31T00:28:07.270Z,68.66
2022-12-31T00:30:33.551Z,68.31
2022-12-31T00:32:59.852Z,67.88
2022-12-31T00:35:26.108Z,68.27
2022-12-31T00:37:52.469Z,68.37
2022-12-31T00:40:18.716Z,68.55
2022-12-31T00:42:44.968Z,68.62
2022-12-31T00:45:11.233Z,68.96
2022-12-31T00:47:37.478Z,68.77
2022-12-31T00:50:03.742Z,68.36
2022-12-31T00:52:30.006Z,68.15
2022-12-31T00:54:56.267Z,68.46
2022-12-31T00:57:22.512Z,68.53
2022-12-31T00:59:48.763Z,69.07
2022-12-31T01:02:15.134Z,68.77
2022-12-31T01:04:41.556Z,68.70
2022-12-31T01:07:07.806Z,68.53
2022-12-31T01:09:34.072Z,68.74
2022-12-31T01:12:00.339Z,68.85
2022-12-31T01:14:26.592Z,68.50
2022-12-31T01:16:52.870Z,68.37
2022-12-31T01:19:19.126Z,68.39
2022-12-31T01:21:45.396Z,67.78
2022-12-31T01:24:11.676Z,68.00
2022-12-31T01:26:37.918Z,67.93
2022-12-31T01:29:04.196Z,68.43
2022-12-31T01:31:30.533Z,68.37
2022-12-31T01:33:56.822Z,68.31
2022-12-31T01:36:25.924Z,68.07
2022-12-31T01:38:52.790Z,68.50
2022-12-31T01:41:19.049Z,68.46
2022-12-31T01:43:45.309Z,68.94
2022-12-31T01:46:11.624Z,68.89
2022-12-31T01:48:37.902Z,69.39
2022-12-31T01:51:04.143Z,69.20
2022-12-31T01:53:30.404Z,68.80
2022-12-31T01:55:56.669Z,68.67
2022-12-31T01:58:23.003Z,68.51
2022-12-31T02:00:49.247Z,68.06
2022-12-31T02:03:15.509Z,68.11
2022-12-31T02:05:41.837Z,68.39
2022-12-31T02:08:08.109Z,68.27
2022-12-31T02:10:34.359Z,68.53
2022-12-31T02:13:00.618Z,68.26
2022-12-31T02:15:26.862Z,68.04
2022-12-31T02:17:53.148Z,68.17
2022-12-31T02:20:19.423Z,68.29
2022-12-31T02:22:45.678Z,68.33
2022-12-31T02:25:11.998Z,67.71
2022-12-31T02:27:38.251Z,68.02
2022-12-31T02:30:04.518Z,67.69
2022-12-31T02:32:30.773Z,67.68
2022-12-31T02:34:57.051Z,67.96
2022-12-31T02:37:23.289Z,68.09
2022-12-31T02:39:49.559Z,67.66
2022-12-31T02:42:15.943Z,67.62
2022-12-31T02:44:42.214Z,67.63
2022-12-31T02:47:08.539Z,67.37
2022-12-31T02:49:34.826Z,67.37
2022-12-31T02:52:01.063Z,67.30
2022-12-31T02:54:27.294Z,67.27
2022-12-31T02:56:53.543Z,67.16
2022-12-31T02:59:19.822Z,66.91
2022-12-31T03:01:46.107Z,67.00
2022-12-31T03:04:12.410Z,67.18
2022-12-31T03:06:38.641Z,67.35
2022-12-31T03:09:04.881Z,67.19
2022-12-31T03:11:31.139Z,67.15
2022-12-31T03:13:57.403Z,66.54
2022-12-31T03:16:23.714Z,67.23
2022-12-31T03:18:50.054Z,67.77
2022-12-31T03:21:16.303Z,67.41
2022-12-31T03:23:42.541Z,67.23
2022-12-31T03:26:08.792Z,67.39
2022-12-31T03:28:35.060Z,67.51
2022-12-31T03:31:01.389Z,67.37
2022-12-31T03:33:27.733Z,67.21
2022-12-31T03:35:54.001Z,67.41
2022-12-31T03:38:20.275Z,67.14
2022-12-31T03:40:46.521Z,67.49
2022-12-31T03:43:12.777Z,67.02
2022-12-31T03:45:39.093Z,67.19
2022-12-31T03:48:05.445Z,67.22
2022-12-31T03:50:31.713Z,67.07
2022-12-31T03:52:57.949Z,67.26
2022-12-31T03:55:24.217Z,67.07
2022-12-31T03:57:50.466Z,67.07
2022-12-31T04:00:16.744Z,67.03
2022-12-31T04:02:43.072Z,66.51
2022-12-31T04:05:09.418Z,67.28
2022-12-31T04:07:35.692Z,67.24
2022-12-31T04:10:01.953Z,67.13
2022-12-31T04:12:28.232Z,66.94
2022-12-31T04:14:54.506Z,66.67
2022-12-31T04:17:20.754Z,66.86
2022-12-31T04:19:47.010Z,66.83
2022-12-31T04:22:13.277Z,66.65
2022-12-31T04:24:39.542Z,67.00
2022-12-31T04:27:08.069Z,66.53
2022-12-31T04:29:34.518Z,66.35
2022-12-31T04:32:00.834Z,66.25
2022-12-31T04:34:27.116Z,66.62
2022-12-31T04:36:53.350Z,66.71
2022-12-31T04:39:19.623Z,66.42
2022-12-31T04:41:45.911Z,66.35
2022-12-31T04:44:12.171Z,66.05
2022-12-31T04:46:38.426Z,66.00
2022-12-31T04:49:04.700Z,66.05
2022-12-31T04:51:30.975Z,66.68
2022-12-31T04:53:57.239Z,66.63
2022-12-31T04:56:23.499Z,66.42
2022-12-31T04:58:49.760Z,66.30
2022-12-31T05:01:16.127Z,65.55
2022-12-31T05:03:42.444Z,65.72
2022-12-31T05:06:08.716Z,66.26
2022-12-31T05:08:34.954Z,65.86
2022-12-31T05:11:01.213Z,66.29
2022-12-31T05:13:32.950Z,66.68
2022-12-31T05:15:59.700Z,66.37
2022-12-31T05:18:25.964Z,66.30
2022-12-31T05:20:52.254Z,66.31
2022-12-31T05:23:19.586Z,66.91
2022-12-31T05:25:45.834Z,66.73
2022-12-31T05:28:12.100Z,66.87
2022-12-31T05:30:38.399Z,67.24
2022-12-31T05:33:04.687Z,66.79
2022-12-31T05:35:30.984Z,66.98
2022-12-31T05:37:57.263Z,67.40
2022-12-31T05:40:23.523Z,66.63
2022-12-31T05:42:49.786Z,66.71
2022-12-31T05:45:16.086Z,66.70
2022-12-31T05:47:42.357Z,66.55
2022-12-31T05:50:08.726Z,67.43
2022-12-31T05:52:34.969Z,66.93
2022-12-31T05:55:01.237Z,67.09
2022-12-31T05:57:27.579Z,67.88
2022-12-31T05:59:53.853Z,67.71
2022-12-31T06:02:20.134Z,66.82
2022-12-31T06:04:46.400Z,67.03
2022-12-31T06:07:12.664Z,66.44
2022-12-31T06:09:38.929Z,66.78
2022-12-31T06:12:05.186Z,67.04
2022-12-31T06:14:31.443Z,67.24
2022-12-31T06:16:57.716Z,67.10
2022-12-31T06:19:23.985Z,67.04
2022-12-31T06:21:50.228Z,67.21
2022-12-31T06:24:16.521Z,67.00
2022-12-31T06:26:42.769Z,66.25
2022-12-31T06:29:09.032Z,66.96
2022-12-31T06:31:35.308Z,66.62
2022-12-31T06:34:01.656Z,66.56
2022-12-31T06:36:27.908Z,67.06
2022-12-31T06:38:54.167Z,66.73
2022-12-31T06:41:20.406Z,67.09
2022-12-31T06:43:46.675Z,67.27
2022-12-31T06:46:12.988Z,67.13
2022-12-31T06:48:39.318Z,67.08
2022-12-31T06:51:05.593Z,66.77
2022-12-31T06:53:31.835Z,67.56
2022-12-31T06:55:58.093Z,67.12
2022-12-31T06:58:24.339Z,67.74
2022-12-31T07:00:50.580Z,67.54
2022-12-31T07:03:16.905Z,67.07
2022-12-31T07:05:43.243Z,67.39
2022-12-31T07:08:09.520Z,67.32
2022-12-31T07:10:35.786Z,68.06
2022-12-31T07:13:02.036Z,67.74
2022-12-31T07:15:28.304Z,67.49
2022-12-31T07:17:54.588Z,67.42
2022-12-31T07:20:20.845Z,68.04
2022-12-31T07:22:47.107Z,67.83
2022-12-31T07:25:13.356Z,67.76
2022-12-31T07:27:39.616Z,67.96
2022-12-31T07:30:05.859Z,68.32
2022-12-31T07:32:32.122Z,68.03
2022-12-31T07:34:58.367Z,68.59
2022-12-31T07:37:24.607Z,68.27
2022-12-31T07:39:50.857Z,68.80
2022-12-31T07:42:17.113Z,67.72
2022-12-31T07:44:43.381Z,67.79
2022-12-31T07:47:09.644Z,68.17
2022-12-31T07:49:35.904Z,68.64
2022-12-31T07:52:02.164Z,68.44
2022-12-31T07:54:28.420Z,67.99
2022-12-31T07:56:54.683Z,68.19
2022-12-31T07:59:24.274Z,69.01
2022-12-31T08:01:51.178Z,69.07
2022-12-31T08:04:17.553Z,69.17
2022-12-31T08:06:43.824Z,69.40
2022-12-31T08:09:10.080Z,69.13
2022-12-31T08:11:36.318Z,69.01
2022-12-31T08:14:02.568Z,68.67
2022-12-31T08:16:28.899Z,68.47
2022-12-31T08:18:55.227Z,68.47
2022-12-31T08:21:21.509Z,69.62
2022-12-31T08:23:47.766Z,69.00
2022-12-31T08:26:14.012Z,69.35
2022-12-31T08:28:40.255Z,69.20
2022-12-31T08:31:06.528Z,69.10
2022-12-31T08:33:32.781Z,69.02
2022-12-31T08:35:59.027Z,69.05
2022-12-31T08:38:25.285Z,69.57
2022-12-31T08:40:51.526Z,69.01
2022-12-31T08:43:17.790Z,68.92
2022-12-31T08:45:44.071Z,68.93
2022-12-31T08:48:10.326Z,69.07
2022-12-31T08:50:36.576Z,69.18
2022-12-31T08:53:02.841Z,68.80
2022-12-31T08:55:29.121Z,68.79
2022-12-31T08:57:55.381Z,68.89
2022-12-31T09:00:21.644Z,68.29
2022-12-31T09:02:48.383Z,68.38
2022-12-31T09:05:14.780Z,68.84
2022-12-31T09:07:41.027Z,68.76
2022-12-31T09:10:07.297Z,68.03
2022-12-31T09:12:33.545Z,68.03
2022-12-31T09:14:59.785Z,68.53
2022-12-31T09:17:26.054Z,68.80
2022-12-31T09:19:52.318Z,68.52
2022-12-31T09:22:18.582Z,68.17
2022-12-31T09:24:44.819Z,68.01
2022-12-31T09:27:11.056Z,67.54
2022-12-31T09:29:37.315Z,67.22
2022-12-31T09:32:03.595Z,66.66
2022-12-31T09:34:29.872Z,66.98
2022-12-31T09:36:56.111Z,66.95
2022-12-31T09:39:22.353Z,66.25
2022-12-31T09:41:48.610Z,65.77
2022-12-31T09:44:14.853Z,66.60
2022-12-31T09:46:41.093Z,66.20
2022-12-31T09:49:07.344Z,65.80
2022-12-31T09:51:33.596Z,66.14
2022-12-31T09:53:59.837Z,66.66
2022-12-31T09:56:26.078Z,66.24
2022-12-31T09:58:52.324Z,65.84
2022-12-31T10:01:18.649Z,65.52
2022-12-31T10:03:44.975Z,65.59
2022-12-31T10:06:11.239Z,65.23
2022-12-31T10:08:37.481Z,65.60
2022-12-31T10:11:03.730Z,65.15
2022-12-31T10:13:29.995Z,65.17
2022-12-31T10:15:56.237Z,65.55
2022-12-31T10:18:22.481Z,65.69
2022-12-31T10:20:48.736Z,65.93
2022-12-31T10:23:15.011Z,65.51
2022-12-31T10:25:41.314Z,66.07
2022-12-31T10:28:07.566Z,66.54
2022-12-31T10:30:33.854Z,66.08
2022-12-31T10:33:00.143Z,66.24
2022-12-31T10:35:26.411Z,66.37
2022-12-31T10:37:52.663Z,66.15
2022-12-31T10:40:18.912Z,66.07
2022-12-31T10:42:45.167Z,65.71
2022-12-31T10:45:11.431Z,65.61
2022-12-31T10:47:37.693Z,65.56
2022-12-31T10:50:03.963Z,65.42
2022-12-31T10:52:30.208Z,65.65
2022-12-31T10:54:56.471Z,65.33
2022-12-31T10:57:22.824Z,64.75
2022-12-31T10:59:49.065Z,64.75
2022-12-31T11:02:15.512Z,64.75
2022-12-31T11:04:41.897Z,64.51
2022-12-31T11:07:08.153Z,64.27
2022-12-31T11:09:34.797Z,63.82
2022-12-31T11:12:01.203Z,63.84
2022-12-31T11:14:27.462Z,63.32
2022-12-31T11:16:53.728Z,63.04
2022-12-31T11:19:20.235Z,63.42
2022-12-31T11:21:46.465Z,62.95
2022-12-31T11:24:12.717Z,62.78
2022-12-31T11:26:38.979Z,62.52
2022-12-31T11:29:05.238Z,62.84
2022-12-31T11:31:31.550Z,62.60
2022-12-31T11:33:57.852Z,62.73
2022-12-31T11:36:24.105Z,62.54
2022-12-31T11:38:50.349Z,61.84
2022-12-31T11:41:16.597Z,62.28
2022-12-31T11:43:42.856Z,61.74
2022-12-31T11:46:09.136Z,62.12
2022-12-31T11:48:35.412Z,61.87
2022-12-31T11:51:01.675Z,62.35
2022-12-31T11:53:27.912Z,62.10
2022-12-31T11:55:54.163Z,61.57
2022-12-31T11:58:20.411Z,61.89
2022-12-31T12:00:46.656Z,62.73
2022-12-31T12:03:12.919Z,62.66
2022-12-31T12:05:39.185Z,62.87
2022-12-31T12:08:05.442Z,61.95
2022-12-31T12:10:35.974Z,62.32
2022-12-31T12:13:02.933Z,62.45
2022-12-31T12:15:29.169Z,62.18
2022-12-31T12:17:55.410Z,62.17
2022-12-31T12:20:21.686Z,62.16
2022-12-31T12:22:49.572Z,62.18
2022-12-31T12:25:15.918Z,61.80
2022-12-31T12:27:42.182Z,61.63
2022-12-31T12:30:08.445Z,61.59
2022-12-31T12:32:34.720Z,61.64
2022-12-31T12:35:00.981Z,60.73
2022-12-31T12:37:27.232Z,59.87
2022-12-31T12:39:53.500Z,59.37
2022-12-31T12:42:19.747Z,60.08
2022-12-31T12:44:46.007Z,60.67
2022-12-31T12:47:12.301Z,60.84
2022-12-31T12:49:38.609Z,61.11
2022-12-31T12:52:04.851Z,61.00
2022-12-31T12:54:31.118Z,59.54
2022-12-31T12:56:57.392Z,60.76
2022-12-31T12:59:23.649Z,60.22
2022-12-31T13:01:49.973Z,59.65
2022-12-31T13:07:02.601Z,59.85
2022-12-31T13:09:28.860Z,59.88
2022-12-31T13:11:55.120Z,60.00
2022-12-31T13:14:21.357Z,60.12
2022-12-31T13:16:47.664Z,59.85
2022-12-31T13:19:13.951Z,59.96
2022-12-31T13:21:40.358Z,60.38
2022-12-31T13:24:06.626Z,59.69
2022-12-31T13:26:32.892Z,59.74
2022-12-31T13:28:59.152Z,60.03
2022-12-31T13:31:25.451Z,59.69
2022-12-31T13:33:51.744Z,59.40
2022-12-31T13:36:17.991Z,59.03
2022-12-31T13:38:44.240Z,59.12
2022-12-31T13:41:10.501Z,59.36
2022-12-31T13:43:36.757Z,59.58
2022-12-31T13:46:03.088Z,60.15
2022-12-31T13:48:29.443Z,60.16
2022-12-31T13:50:55.741Z,59.58
2022-12-31T13:53:22.000Z,59.44
2022-12-31T13:55:52.080Z,59.93
2022-12-31T13:58:22.831Z,59.17
2022-12-31T14:00:49.117Z,59.14
2022-12-31T14:03:15.450Z,59.62
2022-12-31T14:05:41.694Z,59.83
2022-12-31T14:08:08.037Z,59.77
2022-12-31T14:10:34.287Z,59.45
2022-12-31T14:13:00.541Z,59.73
2022-12-31T14:15:26.803Z,59.62
2022-12-31T14:17:53.048Z,59.33
2022-12-31T14:20:19.274Z,58.94
2022-12-31T14:22:45.505Z,59.60
2022-12-31T14:25:11.789Z,59.94
2022-12-31T14:27:38.037Z,60.03
2022-12-31T14:30:04.447Z,60.28
2022-12-31T14:32:30.780Z,60.51
2022-12-31T14:34:57.037Z,60.24
2022-12-31T14:37:23.302Z,60.40
2022-12-31T14:39:49.571Z,60.45
2022-12-31T14:42:15.834Z,60.30
2022-12-31T14:44:42.089Z,60.73
2022-12-31T14:47:08.369Z,60.00
2022-12-31T14:49:34.636Z,60.10
2022-12-31T14:52:00.896Z,60.03
2022-12-31T14:54:28.931Z,60.31
2022-12-31T14:56:55.476Z,60.53
2022-12-31T14:59:21.733Z,59.69
2022-12-31T15:01:48.071Z,60.01
2022-12-31T15:04:14.394Z,59.96
2022-12-31T15:06:40.638Z,60.08
2022-12-31T15:09:08.637Z,59.67
2022-12-31T15:11:35.103Z,60.24
2022-12-31T15:14:01.359Z,60.24
2022-12-31T15:16:27.623Z,60.32
2022-12-31T15:18:53.935Z,60.26
2022-12-31T15:21:20.202Z,60.06
2022-12-31T15:23:46.461Z,59.84
2022-12-31T15:26:12.729Z,59.94
2022-12-31T15:28:39.014Z,59.66
2022-12-31T15:31:05.405Z,59.33
2022-12-31T15:33:31.694Z,59.50
2022-12-31T15:35:57.956Z,59.47
2022-12-31T15:38:24.209Z,59.66
2022-12-31T15:40:50.468Z,59.42
2022-12-31T15:43:16.714Z,59.36
2022-12-31T15:45:42.972Z,59.23
2022-12-31T15:48:09.233Z,59.21
2022-12-31T15:50:35.483Z,59.32
2022-12-31T15:53:01.739Z,59.10
2022-12-31T15:55:28.006Z,59.03
2022-12-31T15:57:54.280Z,59.27
2022-12-31T16:00:20.543Z,59.19
2022-12-31T16:02:46.867Z,59.23
2022-12-31T16:05:13.174Z,58.65
2022-12-31T16:07:39.430Z,59.15
2022-12-31T16:10:05.698Z,58.85
2022-12-31T16:12:34.361Z,58.66
2022-12-31T16:15:03.310Z,58.79
2022-12-31T16:17:29.569Z,58.88
2022-12-31T16:19:55.843Z,58.71
2022-12-31T16:22:22.103Z,59.06
2022-12-31T16:25:28.511Z,58.59
2022-12-31T16:27:34.582Z,58.63
2022-12-31T16:30:00.917Z,58.65
2022-12-31T16:32:27.243Z,58.78
2022-12-31T16:34:53.496Z,58.70
2022-12-31T16:37:19.745Z,58.89
2022-12-31T16:39:46.004Z,58.47
2022-12-31T16:42:12.262Z,58.20
2022-12-31T16:44:38.528Z,58.25
2022-12-31T16:47:04.777Z,58.34
2022-12-31T16:49:31.034Z,58.31
2022-12-31T16:51:57.290Z,58.60
2022-12-31T16:54:23.546Z,58.55
2022-12-31T16:56:49.792Z,58.48
2022-12-31T16:59:16.053Z,58.73
2022-12-31T17:01:42.384Z,59.13
2022-12-31T17:04:08.677Z,58.87
2022-12-31T17:06:34.916Z,58.63
2022-12-31T17:09:01.189Z,59.00
2022-12-31T17:11:27.478Z,58.72
2022-12-31T17:13:53.727Z,59.19
2022-12-31T17:16:20.055Z,58.95
2022-12-31T17:18:46.339Z,58.93
2022-12-31T17:21:12.588Z,59.22
2022-12-31T17:23:38.830Z,58.58
2022-12-31T17:26:05.071Z,58.68
2022-12-31T17:28:31.325Z,58.99
2022-12-31T17:30:57.647Z,58.76
2022-12-31T17:33:23.972Z,58.65
2022-12-31T17:35:50.231Z,58.75
2022-12-31T17:38:16.504Z,58.77
2022-12-31T17:40:51.623Z,58.90
2022-12-31T17:43:18.484Z,58.55
2022-12-31T17:45:44.730Z,58.66
2022-12-31T17:48:11.093Z,58.21
2022-12-31T17:50:37.351Z,58.51
2022-12-31T17:53:03.605Z,58.69
2022-12-31T17:55:29.967Z,58.73
2022-12-31T17:57:56.241Z,58.68
2022-12-31T18:00:22.475Z,58.79
2022-12-31T18:02:48.761Z,59.20
2022-12-31T18:05:15.047Z,59.36
2022-12-31T18:07:41.304Z,59.12
2022-12-31T18:10:07.571Z,59.28
2022-12-31T18:12:33.837Z,59.34
2022-12-31T18:15:00.119Z,59.40
2022-12-31T18:17:26.371Z,60.01
2022-12-31T18:20:04.613Z,59.56
2022-12-31T18:22:32.156Z,59.56
2022-12-31T18:24:58.417Z,59.79
2022-12-31T18:27:24.676Z,59.60
2022-12-31T18:29:51.077Z,59.97
2022-12-31T18:32:17.564Z,59.83
2022-12-31T18:34:43.847Z,59.86
2022-12-31T18:37:10.116Z,59.83
2022-12-31T18:39:36.358Z,59.78
2022-12-31T18:42:02.606Z,59.81
2022-12-31T18:44:28.985Z,59.91
2022-12-31T18:46:55.247Z,59.98
2022-12-31T18:49:21.506Z,60.04
2022-12-31T18:51:47.775Z,59.94
2022-12-31T18:54:14.055Z,59.81
2022-12-31T18:56:46.354Z,59.93
2022-12-31T18:59:13.396Z,59.90
2022-12-31T19:01:39.738Z,60.22
2022-12-31T19:04:06.083Z,60.03
2022-12-31T19:06:32.338Z,60.42
2022-12-31T19:09:00.816Z,59.94
2022-12-31T19:11:27.506Z,60.12
2022-12-31T19:13:53.803Z,60.18
2022-12-31T19:16:20.137Z,59.86
2022-12-31T19:18:46.414Z,59.92
2022-12-31T19:21:12.656Z,60.17
2022-12-31T19:23:38.896Z,59.91
2022-12-31T19:26:05.145Z,59.70
2022-12-31T19:28:31.488Z,60.26
2022-12-31T19:30:57.732Z,60.06
2022-12-31T19:33:23.976Z,60.63
2022-12-31T19:35:50.231Z,60.29
2022-12-31T19:38:16.484Z,60.65
2022-12-31T19:40:42.730Z,60.44
2022-12-31T19:43:08.983Z,60.20
2022-12-31T19:45:35.264Z,60.00
2022-12-31T19:48:01.539Z,60.48
2022-12-31T19:50:27.795Z,59.97
2022-12-31T19:52:54.062Z,60.04
2022-12-31T19:55:20.311Z,60.62
2022-12-31T19:57:46.561Z,60.71
2022-12-31T20:00:12.835Z,60.58
2022-12-31T20:02:39.230Z,60.48
2022-12-31T20:05:05.606Z,60.54
2022-12-31T20:07:31.870Z,60.53
2022-12-31T20:09:58.130Z,60.42
2022-12-31T20:12:24.375Z,60.31
2022-12-31T20:14:50.642Z,60.33
2022-12-31T20:17:16.890Z,60.41
2022-12-31T20:19:43.145Z,60.55
2022-12-31T20:22:09.404Z,60.51
2022-12-31T20:24:35.662Z,60.60
2022-12-31T20:27:01.943Z,60.89
2022-12-31T20:29:28.219Z,60.33
2022-12-31T20:31:54.460Z,61.03
2022-12-31T20:34:20.713Z,60.85
2022-12-31T20:36:47.003Z,60.52
2022-12-31T20:39:13.263Z,60.90
2022-12-31T20:41:39.521Z,61.13
2022-12-31T20:44:05.771Z,60.91
2022-12-31T20:46:32.055Z,61.05
2022-12-31T20:48:58.425Z,61.05
2022-12-31T20:51:24.678Z,61.14
2022-12-31T20:53:51.019Z,61.38
2022-12-31T20:56:17.303Z,61.41
2022-12-31T20:58:43.546Z,61.43
2022-12-31T21:01:09.857Z,61.42
2022-12-31T21:06:22.375Z,61.46
2022-12-31T21:08:48.622Z,61.43
2022-12-31T21:11:14.865Z,61.47
2022-12-31T21:13:41.145Z,61.04
2022-12-31T21:16:07.450Z,61.25
2022-12-31T21:18:33.712Z,61.67
2022-12-31T21:20:59.976Z,61.30
2022-12-31T21:23:26.237Z,61.45
2022-12-31T21:25:52.485Z,61.48
2022-12-31T21:28:18.746Z,61.92
2022-12-31T21:30:45.031Z,61.52
2022-12-31T21:33:11.288Z,61.71
2022-12-31T21:35:43.788Z,61.78
2022-12-31T21:38:11.742Z,62.10
2022-12-31T21:40:37.989Z,61.82
2022-12-31T21:43:04.261Z,61.96
2022-12-31T21:45:30.515Z,61.85
2022-12-31T21:47:56.828Z,61.71
2022-12-31T21:50:23.180Z,61.81
2022-12-31T21:52:49.433Z,61.71
2022-12-31T21:55:15.699Z,61.98
2022-12-31T21:58:15.663Z,61.99
2022-12-31T22:00:43.917Z,62.05
2022-12-31T22:03:10.447Z,61.80
2022-12-31T22:05:36.737Z,62.10
2022-12-31T22:08:02.986Z,61.70
2022-12-31T22:10:29.286Z,61.73
2022-12-31T22:12:55.540Z,61.51
2022-12-31T22:15:21.830Z,61.85
2022-12-31T22:17:48.080Z,61.82
2022-12-31T22:20:26.966Z,62.37
2022-12-31T22:22:54.308Z,61.71
2022-12-31T22:25:20.573Z,62.21
2022-12-31T22:28:11.647Z,61.82
2022-12-31T22:30:33.056Z,62.14
2022-12-31T22:32:59.329Z,62.32
2022-12-31T22:35:25.586Z,61.81
2022-12-31T22:37:57.536Z,62.03
2022-12-31T22:40:25.353Z,61.72
2022-12-31T22:42:51.631Z,61.82
2022-12-31T22:45:17.896Z,62.19
2022-12-31T22:47:44.144Z,62.20
2022-12-31T22:50:10.399Z,62.36
2022-12-31T22:52:36.661Z,62.35
2022-12-31T22:55:02.921Z,62.42
2022-12-31T22:57:29.164Z,62.17
2022-12-31T22:59:55.644Z,62.29
2022-12-31T23:02:21.908Z,62.00
2022-12-31T23:04:48.161Z,62.23
2022-12-31T23:07:14.422Z,62.46
2022-12-31T23:09:40.683Z,62.67
2022-12-31T23:12:06.967Z,62.46
2022-12-31T23:14:33.227Z,62.54
2022-12-31T23:16:59.473Z,62.65
2022-12-31T23:19:45.714Z,62.59
2022-12-31T23:22:11.963Z,62.41
2022-12-31T23:24:38.240Z,62.48
2022-12-31T23:27:04.504Z,62.64
2022-12-31T23:29:30.784Z,62.40
2022-12-31T23:31:57.048Z,62.58
2022-12-31T23:34:23.310Z,62.67
2022-12-31T23:36:49.597Z,62.69
2022-12-31T23:39:15.866Z,62.48
2022-12-31T23:41:42.123Z,62.98
2022-12-31T23:44:08.381Z,62.79
2022-12-31T23:46:34.634Z,62.78
2022-12-31T23:49:00.899Z,62.58
2022-12-31T23:51:27.166Z,62.80
2022-12-31T23:53:53.411Z,62.69
2022-12-31T23:56:23.611Z,62.87
2022-12-31T23:58:50.348Z,62.87
